sensor_id;sensor_type;location;lat;lon;timestamp;P1;durP1;ratioP1;P2;durP2;ratioP2
38609;SDS011;24367;51.640;9.566;2023-12-22T00:00:36;4.82;;;2.05;;
38609;SDS011;24367;51.640;9.566;2023-12-22T00:03:03;5.35;;;1.65;;
38609;SDS011;24367;51.640;9.566;2023-12-22T00:05:30;5.78;;;2.08;;
38609;SDS011;24367;51.640;9.566;2023-12-22T00:07:57;6.28;;;1.77;;
38609;SDS011;24367;51.640;9.566;2023-12-22T00:10:24;4.07;;;1.83;;
38609;SDS011;24367;51.640;9.566;2023-12-22T00:12:50;5.80;;;2.13;;
38609;SDS011;24367;51.640;9.566;2023-12-22T00:15:16;7.82;;;2.10;;
38609;SDS011;24367;51.640;9.566;2023-12-22T00:17:43;6.50;;;1.95;;
38609;SDS011;24367;51.640;9.566;2023-12-22T00:20:09;3.97;;;1.67;;
38609;SDS011;24367;51.640;9.566;2023-12-22T00:22:38;5.88;;;1.90;;
38609;SDS011;24367;51.640;9.566;2023-12-22T00:25:06;6.30;;;2.10;;
38609;SDS011;24367;51.640;9.566;2023-12-22T00:27:34;5.75;;;2.08;;
38609;SDS011;24367;51.640;9.566;2023-12-22T00:30:01;3.88;;;1.60;;
38609;SDS011;24367;51.640;9.566;2023-12-22T00:32:27;4.72;;;1.80;;
38609;SDS011;24367;51.640;9.566;2023-12-22T00:34:53;4.10;;;1.80;;
38609;SDS011;24367;51.640;9.566;2023-12-22T00:37:21;3.53;;;1.38;;
38609;SDS011;24367;51.640;9.566;2023-12-22T00:39:48;7.70;;;2.03;;
38609;SDS011;24367;51.640;9.566;2023-12-22T00:42:15;4.43;;;1.60;;
38609;SDS011;24367;51.640;9.566;2023-12-22T00:44:42;4.63;;;1.90;;
38609;SDS011;24367;51.640;9.566;2023-12-22T00:47:08;5.60;;;1.98;;
38609;SDS011;24367;51.640;9.566;2023-12-22T00:49:34;5.13;;;1.85;;
38609;SDS011;24367;51.640;9.566;2023-12-22T00:52:01;4.25;;;1.90;;
38609;SDS011;24367;51.640;9.566;2023-12-22T00:54:27;5.65;;;2.25;;
38609;SDS011;24367;51.640;9.566;2023-12-22T00:56:55;4.30;;;1.73;;
38609;SDS011;24367;51.640;9.566;2023-12-22T00:59:23;5.28;;;2.25;;
38609;SDS011;24367;51.640;9.566;2023-12-22T01:01:50;5.03;;;1.98;;
38609;SDS011;24367;51.640;9.566;2023-12-22T01:04:16;5.88;;;1.83;;
38609;SDS011;24367;51.640;9.566;2023-12-22T01:06:42;4.55;;;1.77;;
38609;SDS011;24367;51.640;9.566;2023-12-22T01:09:09;6.90;;;1.95;;
38609;SDS011;24367;51.640;9.566;2023-12-22T01:11:35;3.55;;;1.75;;
38609;SDS011;24367;51.640;9.566;2023-12-22T01:14:02;6.30;;;1.73;;
38609;SDS011;24367;51.640;9.566;2023-12-22T01:16:29;4.75;;;1.70;;
38609;SDS011;24367;51.640;9.566;2023-12-22T01:18:56;5.72;;;2.20;;
38609;SDS011;24367;51.640;9.566;2023-12-22T01:21:21;3.88;;;1.92;;
38609;SDS011;24367;51.640;9.566;2023-12-22T01:23:47;5.03;;;1.85;;
38609;SDS011;24367;51.640;9.566;2023-12-22T01:26:14;4.47;;;1.90;;
38609;SDS011;24367;51.640;9.566;2023-12-22T01:28:40;5.95;;;2.22;;
38609;SDS011;24367;51.640;9.566;2023-12-22T01:31:07;5.03;;;2.03;;
38609;SDS011;24367;51.640;9.566;2023-12-22T01:33:34;4.38;;;1.58;;
38609;SDS011;24367;51.640;9.566;2023-12-22T01:36:01;4.85;;;1.60;;
38609;SDS011;24367;51.640;9.566;2023-12-22T01:38:27;4.43;;;1.65;;
38609;SDS011;24367;51.640;9.566;2023-12-22T01:40:54;4.75;;;2.28;;
38609;SDS011;24367;51.640;9.566;2023-12-22T01:43:20;3.95;;;1.65;;
38609;SDS011;24367;51.640;9.566;2023-12-22T01:45:49;5.82;;;2.17;;
38609;SDS011;24367;51.640;9.566;2023-12-22T01:48:15;4.07;;;1.73;;
38609;SDS011;24367;51.640;9.566;2023-12-22T01:50:43;3.85;;;1.50;;
38609;SDS011;24367;51.640;9.566;2023-12-22T01:53:10;4.63;;;1.60;;
38609;SDS011;24367;51.640;9.566;2023-12-22T01:55:36;3.80;;;1.73;;
38609;SDS011;24367;51.640;9.566;2023-12-22T01:58:03;6.05;;;2.00;;
38609;SDS011;24367;51.640;9.566;2023-12-22T02:00:30;3.75;;;1.55;;
38609;SDS011;24367;51.640;9.566;2023-12-22T02:02:56;3.95;;;1.35;;
38609;SDS011;24367;51.640;9.566;2023-12-22T02:05:23;4.00;;;1.85;;
38609;SDS011;24367;51.640;9.566;2023-12-22T02:07:51;5.47;;;1.95;;
38609;SDS011;24367;51.640;9.566;2023-12-22T02:10:17;3.40;;;1.52;;
38609;SDS011;24367;51.640;9.566;2023-12-22T02:12:44;4.82;;;1.73;;
38609;SDS011;24367;51.640;9.566;2023-12-22T02:15:11;3.75;;;1.67;;
38609;SDS011;24367;51.640;9.566;2023-12-22T02:17:39;4.78;;;1.95;;
38609;SDS011;24367;51.640;9.566;2023-12-22T02:20:10;3.63;;;1.48;;
38609;SDS011;24367;51.640;9.566;2023-12-22T02:22:38;4.10;;;1.75;;
38609;SDS011;24367;51.640;9.566;2023-12-22T02:25:05;3.83;;;1.88;;
38609;SDS011;24367;51.640;9.566;2023-12-22T02:27:33;3.70;;;1.60;;
38609;SDS011;24367;51.640;9.566;2023-12-22T02:30:03;4.22;;;1.55;;
38609;SDS011;24367;51.640;9.566;2023-12-22T02:32:34;4.32;;;1.67;;
38609;SDS011;24367;51.640;9.566;2023-12-22T02:35:02;4.18;;;2.03;;
38609;SDS011;24367;51.640;9.566;2023-12-22T02:37:31;4.40;;;1.63;;
38609;SDS011;24367;51.640;9.566;2023-12-22T02:39:59;3.60;;;1.40;;
38609;SDS011;24367;51.640;9.566;2023-12-22T02:42:27;4.72;;;1.48;;
38609;SDS011;24367;51.640;9.566;2023-12-22T02:44:56;4.05;;;1.50;;
38609;SDS011;24367;51.640;9.566;2023-12-22T02:47:23;3.88;;;1.58;;
38609;SDS011;24367;51.640;9.566;2023-12-22T02:49:49;3.75;;;1.70;;
38609;SDS011;24367;51.640;9.566;2023-12-22T02:52:15;3.83;;;1.58;;
38609;SDS011;24367;51.640;9.566;2023-12-22T02:54:42;4.00;;;1.60;;
38609;SDS011;24367;51.640;9.566;2023-12-22T02:57:09;4.32;;;1.52;;
38609;SDS011;24367;51.640;9.566;2023-12-22T02:59:36;3.13;;;1.40;;
38609;SDS011;24367;51.640;9.566;2023-12-22T03:02:03;4.07;;;1.60;;
38609;SDS011;24367;51.640;9.566;2023-12-22T03:04:29;4.38;;;1.63;;
38609;SDS011;24367;51.640;9.566;2023-12-22T03:06:56;4.55;;;1.83;;
38609;SDS011;24367;51.640;9.566;2023-12-22T03:09:22;3.92;;;1.67;;
38609;SDS011;24367;51.640;9.566;2023-12-22T03:11:49;4.03;;;1.90;;
38609;SDS011;24367;51.640;9.566;2023-12-22T03:14:18;3.20;;;1.15;;
38609;SDS011;24367;51.640;9.566;2023-12-22T03:16:44;3.88;;;1.67;;
38609;SDS011;24367;51.640;9.566;2023-12-22T03:19:11;4.55;;;1.83;;
38609;SDS011;24367;51.640;9.566;2023-12-22T03:21:37;4.10;;;1.40;;
38609;SDS011;24367;51.640;9.566;2023-12-22T03:24:03;3.63;;;1.35;;
38609;SDS011;24367;51.640;9.566;2023-12-22T03:26:30;5.05;;;1.77;;
38609;SDS011;24367;51.640;9.566;2023-12-22T03:28:56;5.05;;;1.67;;
38609;SDS011;24367;51.640;9.566;2023-12-22T03:31:24;5.40;;;1.73;;
38609;SDS011;24367;51.640;9.566;2023-12-22T03:33:50;4.18;;;1.80;;
38609;SDS011;24367;51.640;9.566;2023-12-22T03:36:17;3.22;;;1.58;;
38609;SDS011;24367;51.640;9.566;2023-12-22T03:38:43;3.28;;;1.30;;
38609;SDS011;24367;51.640;9.566;2023-12-22T03:41:09;3.33;;;1.58;;
38609;SDS011;24367;51.640;9.566;2023-12-22T03:43:36;3.75;;;1.63;;
38609;SDS011;24367;51.640;9.566;2023-12-22T03:46:02;3.10;;;1.48;;
38609;SDS011;24367;51.640;9.566;2023-12-22T03:48:30;3.45;;;1.35;;
38609;SDS011;24367;51.640;9.566;2023-12-22T03:50:56;4.40;;;1.83;;
38609;SDS011;24367;51.640;9.566;2023-12-22T03:53:23;3.33;;;1.58;;
38609;SDS011;24367;51.640;9.566;2023-12-22T03:55:49;3.85;;;1.70;;
38609;SDS011;24367;51.640;9.566;2023-12-22T03:58:15;5.15;;;1.75;;
38609;SDS011;24367;51.640;9.566;2023-12-22T04:00:42;2.95;;;1.25;;
38609;SDS011;24367;51.640;9.566;2023-12-22T04:03:08;4.78;;;1.50;;
38609;SDS011;24367;51.640;9.566;2023-12-22T04:05:36;3.40;;;1.52;;
38609;SDS011;24367;51.640;9.566;2023-12-22T04:08:02;3.47;;;1.52;;
38609;SDS011;24367;51.640;9.566;2023-12-22T04:10:29;3.35;;;1.42;;
38609;SDS011;24367;51.640;9.566;2023-12-22T04:12:56;3.65;;;1.35;;
38609;SDS011;24367;51.640;9.566;2023-12-22T04:15:22;3.35;;;1.40;;
38609;SDS011;24367;51.640;9.566;2023-12-22T04:17:49;3.35;;;1.67;;
38609;SDS011;24367;51.640;9.566;2023-12-22T04:20:15;3.85;;;1.60;;
38609;SDS011;24367;51.640;9.566;2023-12-22T04:22:43;4.20;;;1.73;;
38609;SDS011;24367;51.640;9.566;2023-12-22T04:25:10;3.92;;;1.70;;
38609;SDS011;24367;51.640;9.566;2023-12-22T04:27:36;3.25;;;1.48;;
38609;SDS011;24367;51.640;9.566;2023-12-22T04:30:03;3.38;;;1.50;;
38609;SDS011;24367;51.640;9.566;2023-12-22T04:32:30;2.78;;;1.10;;
38609;SDS011;24367;51.640;9.566;2023-12-22T04:34:56;3.30;;;1.52;;
38609;SDS011;24367;51.640;9.566;2023-12-22T04:37:23;3.22;;;1.50;;
38609;SDS011;24367;51.640;9.566;2023-12-22T04:39:51;3.67;;;1.45;;
38609;SDS011;24367;51.640;9.566;2023-12-22T04:42:17;3.00;;;1.17;;
38609;SDS011;24367;51.640;9.566;2023-12-22T04:44:44;3.13;;;1.23;;
38609;SDS011;24367;51.640;9.566;2023-12-22T04:47:11;3.38;;;1.50;;
38609;SDS011;24367;51.640;9.566;2023-12-22T04:49:37;2.47;;;0.95;;
38609;SDS011;24367;51.640;9.566;2023-12-22T04:52:04;3.22;;;1.17;;
38609;SDS011;24367;51.640;9.566;2023-12-22T04:54:30;3.28;;;1.10;;
38609;SDS011;24367;51.640;9.566;2023-12-22T04:56:58;4.75;;;1.42;;
38609;SDS011;24367;51.640;9.566;2023-12-22T04:59:25;3.88;;;1.60;;
38609;SDS011;24367;51.640;9.566;2023-12-22T05:01:51;3.42;;;1.33;;
38609;SDS011;24367;51.640;9.566;2023-12-22T05:04:17;2.80;;;1.10;;
38609;SDS011;24367;51.640;9.566;2023-12-22T05:06:44;3.20;;;1.40;;
38609;SDS011;24367;51.640;9.566;2023-12-22T05:09:11;3.00;;;1.25;;
38609;SDS011;24367;51.640;9.566;2023-12-22T05:11:37;3.50;;;1.48;;
38609;SDS011;24367;51.640;9.566;2023-12-22T05:14:05;3.13;;;1.10;;
38609;SDS011;24367;51.640;9.566;2023-12-22T05:16:31;3.47;;;1.55;;
38609;SDS011;24367;51.640;9.566;2023-12-22T05:18:58;2.60;;;1.15;;
38609;SDS011;24367;51.640;9.566;2023-12-22T05:21:24;3.97;;;1.63;;
38609;SDS011;24367;51.640;9.566;2023-12-22T05:23:52;4.80;;;1.50;;
38609;SDS011;24367;51.640;9.566;2023-12-22T05:26:19;4.10;;;1.73;;
38609;SDS011;24367;51.640;9.566;2023-12-22T05:28:46;3.42;;;1.17;;
38609;SDS011;24367;51.640;9.566;2023-12-22T05:31:15;3.55;;;1.27;;
38609;SDS011;24367;51.640;9.566;2023-12-22T05:33:42;4.47;;;1.42;;
38609;SDS011;24367;51.640;9.566;2023-12-22T05:36:09;2.97;;;1.33;;
38609;SDS011;24367;51.640;9.566;2023-12-22T05:38:37;3.42;;;1.70;;
38609;SDS011;24367;51.640;9.566;2023-12-22T05:41:03;4.47;;;1.40;;
38609;SDS011;24367;51.640;9.566;2023-12-22T05:43:31;3.22;;;1.30;;
38609;SDS011;24367;51.640;9.566;2023-12-22T05:45:57;3.60;;;1.42;;
38609;SDS011;24367;51.640;9.566;2023-12-22T05:48:25;3.63;;;1.25;;
38609;SDS011;24367;51.640;9.566;2023-12-22T05:50:51;3.13;;;1.25;;
38609;SDS011;24367;51.640;9.566;2023-12-22T05:53:17;2.95;;;1.13;;
38609;SDS011;24367;51.640;9.566;2023-12-22T05:55:44;2.97;;;1.30;;
38609;SDS011;24367;51.640;9.566;2023-12-22T05:58:10;3.28;;;1.40;;
38609;SDS011;24367;51.640;9.566;2023-12-22T06:00:36;3.60;;;1.30;;
38609;SDS011;24367;51.640;9.566;2023-12-22T06:03:03;4.18;;;1.70;;
38609;SDS011;24367;51.640;9.566;2023-12-22T06:05:32;2.72;;;1.00;;
38609;SDS011;24367;51.640;9.566;2023-12-22T06:07:58;2.80;;;1.20;;
38609;SDS011;24367;51.640;9.566;2023-12-22T06:10:25;3.72;;;1.40;;
38609;SDS011;24367;51.640;9.566;2023-12-22T06:12:51;5.05;;;1.73;;
38609;SDS011;24367;51.640;9.566;2023-12-22T06:15:18;3.65;;;1.40;;
38609;SDS011;24367;51.640;9.566;2023-12-22T06:17:44;3.25;;;1.20;;
38609;SDS011;24367;51.640;9.566;2023-12-22T06:20:10;4.57;;;1.20;;
38609;SDS011;24367;51.640;9.566;2023-12-22T06:22:38;4.43;;;1.40;;
38609;SDS011;24367;51.640;9.566;2023-12-22T06:25:05;3.28;;;1.10;;
38609;SDS011;24367;51.640;9.566;2023-12-22T06:27:33;2.47;;;1.08;;
38609;SDS011;24367;51.640;9.566;2023-12-22T06:29:59;3.15;;;1.08;;
38609;SDS011;24367;51.640;9.566;2023-12-22T06:32:25;3.55;;;1.30;;
38609;SDS011;24367;51.640;9.566;2023-12-22T06:34:52;4.18;;;1.40;;
38609;SDS011;24367;51.640;9.566;2023-12-22T06:37:18;3.20;;;1.10;;
38609;SDS011;24367;51.640;9.566;2023-12-22T06:39:46;4.68;;;1.20;;
38609;SDS011;24367;51.640;9.566;2023-12-22T06:42:12;3.28;;;0.95;;
38609;SDS011;24367;51.640;9.566;2023-12-22T06:44:41;3.53;;;0.98;;
38609;SDS011;24367;51.640;9.566;2023-12-22T06:47:07;4.85;;;1.30;;
38609;SDS011;24367;51.640;9.566;2023-12-22T06:49:34;4.72;;;1.30;;
38609;SDS011;24367;51.640;9.566;2023-12-22T06:52:00;3.80;;;1.35;;
38609;SDS011;24367;51.640;9.566;2023-12-22T06:54:27;2.92;;;1.20;;
38609;SDS011;24367;51.640;9.566;2023-12-22T06:56:55;3.72;;;1.00;;
38609;SDS011;24367;51.640;9.566;2023-12-22T06:59:22;4.25;;;1.35;;
38609;SDS011;24367;51.640;9.566;2023-12-22T07:01:48;3.53;;;1.30;;
38609;SDS011;24367;51.640;9.566;2023-12-22T07:04:14;3.33;;;1.15;;
38609;SDS011;24367;51.640;9.566;2023-12-22T07:06:41;5.70;;;1.20;;
38609;SDS011;24367;51.640;9.566;2023-12-22T07:12:00;3.55;;;1.30;;
38609;SDS011;24367;51.640;9.566;2023-12-22T07:14:28;2.65;;;0.95;;
38609;SDS011;24367;51.640;9.566;2023-12-22T07:16:55;5.32;;;1.05;;
38609;SDS011;24367;51.640;9.566;2023-12-22T07:19:23;8.60;;;3.05;;
38609;SDS011;24367;51.640;9.566;2023-12-22T07:21:49;5.88;;;2.30;;
38609;SDS011;24367;51.640;9.566;2023-12-22T07:24:15;7.22;;;2.38;;
38609;SDS011;24367;51.640;9.566;2023-12-22T07:26:42;6.90;;;2.00;;
38609;SDS011;24367;51.640;9.566;2023-12-22T07:29:10;7.32;;;2.10;;
38609;SDS011;24367;51.640;9.566;2023-12-22T07:31:37;6.95;;;2.22;;
38609;SDS011;24367;51.640;9.566;2023-12-22T07:34:03;7.15;;;1.88;;
38609;SDS011;24367;51.640;9.566;2023-12-22T07:36:30;5.78;;;2.08;;
38609;SDS011;24367;51.640;9.566;2023-12-22T07:38:56;4.57;;;1.73;;
38609;SDS011;24367;51.640;9.566;2023-12-22T07:41:24;5.75;;;2.08;;
38609;SDS011;24367;51.640;9.566;2023-12-22T07:43:50;5.88;;;1.77;;
38609;SDS011;24367;51.640;9.566;2023-12-22T07:46:18;6.20;;;2.10;;
38609;SDS011;24367;51.640;9.566;2023-12-22T07:48:45;4.32;;;1.38;;
38609;SDS011;24367;51.640;9.566;2023-12-22T07:51:11;5.13;;;1.60;;
38609;SDS011;24367;51.640;9.566;2023-12-22T07:53:38;5.10;;;1.80;;
38609;SDS011;24367;51.640;9.566;2023-12-22T07:56:04;6.28;;;1.85;;
38609;SDS011;24367;51.640;9.566;2023-12-22T07:58:31;7.45;;;1.90;;
38609;SDS011;24367;51.640;9.566;2023-12-22T08:00:58;5.53;;;1.83;;
38609;SDS011;24367;51.640;9.566;2023-12-22T08:03:26;3.80;;;1.60;;
38609;SDS011;24367;51.640;9.566;2023-12-22T08:05:53;6.47;;;1.55;;
38609;SDS011;24367;51.640;9.566;2023-12-22T08:08:19;5.57;;;1.70;;
38609;SDS011;24367;51.640;9.566;2023-12-22T08:10:45;6.82;;;2.22;;
38609;SDS011;24367;51.640;9.566;2023-12-22T08:13:13;5.03;;;1.75;;
38609;SDS011;24367;51.640;9.566;2023-12-22T08:15:39;4.60;;;1.90;;
38609;SDS011;24367;51.640;9.566;2023-12-22T08:18:06;4.75;;;1.80;;
38609;SDS011;24367;51.640;9.566;2023-12-22T08:20:34;5.90;;;2.10;;
38609;SDS011;24367;51.640;9.566;2023-12-22T08:23:00;5.28;;;1.70;;
38609;SDS011;24367;51.640;9.566;2023-12-22T08:25:27;6.40;;;1.77;;
38609;SDS011;24367;51.640;9.566;2023-12-22T08:27:53;5.15;;;1.95;;
38609;SDS011;24367;51.640;9.566;2023-12-22T08:30:20;5.65;;;1.58;;
38609;SDS011;24367;51.640;9.566;2023-12-22T08:32:46;6.07;;;1.63;;
38609;SDS011;24367;51.640;9.566;2023-12-22T08:35:12;6.97;;;1.88;;
38609;SDS011;24367;51.640;9.566;2023-12-22T08:37:41;7.80;;;2.05;;
38609;SDS011;24367;51.640;9.566;2023-12-22T08:40:07;12.23;;;1.50;;
38609;SDS011;24367;51.640;9.566;2023-12-22T08:42:34;5.53;;;2.05;;
38609;SDS011;24367;51.640;9.566;2023-12-22T08:45:01;4.88;;;1.50;;
38609;SDS011;24367;51.640;9.566;2023-12-22T08:47:27;5.57;;;1.90;;
38609;SDS011;24367;51.640;9.566;2023-12-22T08:49:54;4.28;;;1.33;;
38609;SDS011;24367;51.640;9.566;2023-12-22T08:52:20;3.78;;;1.45;;
38609;SDS011;24367;51.640;9.566;2023-12-22T08:54:48;4.55;;;1.52;;
38609;SDS011;24367;51.640;9.566;2023-12-22T08:57:14;4.38;;;1.73;;
38609;SDS011;24367;51.640;9.566;2023-12-22T08:59:41;6.22;;;1.50;;
38609;SDS011;24367;51.640;9.566;2023-12-22T09:02:07;4.50;;;1.20;;
38609;SDS011;24367;51.640;9.566;2023-12-22T09:04:34;2.95;;;1.30;;
38609;SDS011;24367;51.640;9.566;2023-12-22T09:07:00;5.10;;;1.40;;
38609;SDS011;24367;51.640;9.566;2023-12-22T09:09:26;5.00;;;1.67;;
38609;SDS011;24367;51.640;9.566;2023-12-22T09:11:57;7.32;;;1.73;;
38609;SDS011;24367;51.640;9.566;2023-12-22T09:14:23;3.65;;;1.40;;
38609;SDS011;24367;51.640;9.566;2023-12-22T09:16:50;4.25;;;1.50;;
38609;SDS011;24367;51.640;9.566;2023-12-22T09:19:16;3.60;;;1.35;;
38609;SDS011;24367;51.640;9.566;2023-12-22T09:21:43;4.80;;;1.75;;
38609;SDS011;24367;51.640;9.566;2023-12-22T09:24:09;5.25;;;1.60;;
38609;SDS011;24367;51.640;9.566;2023-12-22T09:26:37;6.53;;;1.40;;
38609;SDS011;24367;51.640;9.566;2023-12-22T09:29:06;3.45;;;1.20;;
38609;SDS011;24367;51.640;9.566;2023-12-22T09:31:32;6.15;;;1.50;;
38609;SDS011;24367;51.640;9.566;2023-12-22T09:33:58;4.28;;;1.40;;
38609;SDS011;24367;51.640;9.566;2023-12-22T09:36:25;5.60;;;1.45;;
38609;SDS011;24367;51.640;9.566;2023-12-22T09:38:51;4.18;;;1.33;;
38609;SDS011;24367;51.640;9.566;2023-12-22T09:41:18;5.30;;;1.60;;
38609;SDS011;24367;51.640;9.566;2023-12-22T09:43:44;5.82;;;1.63;;
38609;SDS011;24367;51.640;9.566;2023-12-22T09:46:15;4.63;;;1.42;;
38609;SDS011;24367;51.640;9.566;2023-12-22T09:48:42;4.22;;;1.83;;
38609;SDS011;24367;51.640;9.566;2023-12-22T09:51:09;3.55;;;1.40;;
38609;SDS011;24367;51.640;9.566;2023-12-22T09:53:37;3.60;;;1.33;;
38609;SDS011;24367;51.640;9.566;2023-12-22T09:56:04;4.05;;;1.40;;
38609;SDS011;24367;51.640;9.566;2023-12-22T09:58:32;5.47;;;1.40;;
38609;SDS011;24367;51.640;9.566;2023-12-22T10:01:00;4.43;;;1.38;;
38609;SDS011;24367;51.640;9.566;2023-12-22T10:03:31;4.63;;;1.42;;
38609;SDS011;24367;51.640;9.566;2023-12-22T10:05:59;3.65;;;1.45;;
38609;SDS011;24367;51.640;9.566;2023-12-22T10:08:26;4.72;;;1.70;;
38609;SDS011;24367;51.640;9.566;2023-12-22T10:10:52;3.42;;;1.15;;
38609;SDS011;24367;51.640;9.566;2023-12-22T10:13:20;4.93;;;1.65;;
38609;SDS011;24367;51.640;9.566;2023-12-22T10:15:47;3.50;;;1.45;;
38609;SDS011;24367;51.640;9.566;2023-12-22T10:18:16;5.18;;;1.52;;
38609;SDS011;24367;51.640;9.566;2023-12-22T10:20:44;7.30;;;1.73;;
38609;SDS011;24367;51.640;9.566;2023-12-22T10:23:11;5.07;;;1.50;;
38609;SDS011;24367;51.640;9.566;2023-12-22T10:25:37;3.33;;;1.23;;
38609;SDS011;24367;51.640;9.566;2023-12-22T10:28:06;10.13;;;1.88;;
38609;SDS011;24367;51.640;9.566;2023-12-22T10:30:36;6.07;;;1.30;;
38609;SDS011;24367;51.640;9.566;2023-12-22T10:33:03;4.20;;;1.27;;
38609;SDS011;24367;51.640;9.566;2023-12-22T10:35:30;3.28;;;1.13;;
38609;SDS011;24367;51.640;9.566;2023-12-22T10:37:58;3.35;;;1.25;;
38609;SDS011;24367;51.640;9.566;2023-12-22T10:40:24;3.65;;;1.33;;
38609;SDS011;24367;51.640;9.566;2023-12-22T10:42:51;3.33;;;1.25;;
38609;SDS011;24367;51.640;9.566;2023-12-22T10:45:18;3.88;;;1.30;;
38609;SDS011;24367;51.640;9.566;2023-12-22T10:47:44;3.67;;;1.50;;
38609;SDS011;24367;51.640;9.566;2023-12-22T10:50:11;4.60;;;1.15;;
38609;SDS011;24367;51.640;9.566;2023-12-22T10:52:38;3.50;;;1.35;;
38609;SDS011;24367;51.640;9.566;2023-12-22T10:55:06;5.15;;;1.27;;
38609;SDS011;24367;51.640;9.566;2023-12-22T10:57:33;3.33;;;1.45;;
38609;SDS011;24367;51.640;9.566;2023-12-22T11:00:03;3.30;;;1.35;;
38609;SDS011;24367;51.640;9.566;2023-12-22T11:02:30;3.42;;;1.15;;
38609;SDS011;24367;51.640;9.566;2023-12-22T11:05:00;3.28;;;1.25;;
38609;SDS011;24367;51.640;9.566;2023-12-22T11:07:30;5.03;;;1.33;;
38609;SDS011;24367;51.640;9.566;2023-12-22T11:10:00;3.88;;;1.30;;
38609;SDS011;24367;51.640;9.566;2023-12-22T11:12:31;3.17;;;1.08;;
38609;SDS011;24367;51.640;9.566;2023-12-22T11:14:57;3.03;;;1.25;;
38609;SDS011;24367;51.640;9.566;2023-12-22T11:17:24;4.57;;;1.50;;
38609;SDS011;24367;51.640;9.566;2023-12-22T11:19:53;4.88;;;1.27;;
38609;SDS011;24367;51.640;9.566;2023-12-22T11:22:20;2.72;;;1.20;;
38609;SDS011;24367;51.640;9.566;2023-12-22T11:24:47;3.22;;;1.30;;
38609;SDS011;24367;51.640;9.566;2023-12-22T11:27:15;3.83;;;1.25;;
38609;SDS011;24367;51.640;9.566;2023-12-22T11:29:44;4.38;;;1.20;;
38609;SDS011;24367;51.640;9.566;2023-12-22T11:32:11;3.38;;;1.20;;
38609;SDS011;24367;51.640;9.566;2023-12-22T11:34:41;5.38;;;1.27;;
38609;SDS011;24367;51.640;9.566;2023-12-22T11:37:08;5.07;;;1.00;;
38609;SDS011;24367;51.640;9.566;2023-12-22T11:39:35;3.55;;;1.13;;
38609;SDS011;24367;51.640;9.566;2023-12-22T11:42:03;4.38;;;1.40;;
38609;SDS011;24367;51.640;9.566;2023-12-22T11:44:31;3.33;;;1.20;;
38609;SDS011;24367;51.640;9.566;2023-12-22T11:47:05;3.85;;;1.42;;
38609;SDS011;24367;51.640;9.566;2023-12-22T11:49:32;3.40;;;1.10;;
38609;SDS011;24367;51.640;9.566;2023-12-22T11:52:04;3.63;;;1.45;;
38609;SDS011;24367;51.640;9.566;2023-12-22T11:54:48;2.92;;;1.23;;
38609;SDS011;24367;51.640;9.566;2023-12-22T11:57:31;5.47;;;1.35;;
38609;SDS011;24367;51.640;9.566;2023-12-22T12:00:00;2.95;;;1.20;;
38609;SDS011;24367;51.640;9.566;2023-12-22T12:02:39;3.65;;;1.13;;
38609;SDS011;24367;51.640;9.566;2023-12-22T12:05:06;4.45;;;1.45;;
38609;SDS011;24367;51.640;9.566;2023-12-22T12:07:37;3.25;;;1.10;;
38609;SDS011;24367;51.640;9.566;2023-12-22T12:10:09;3.90;;;1.23;;
38609;SDS011;24367;51.640;9.566;2023-12-22T12:12:36;2.85;;;1.00;;
38609;SDS011;24367;51.640;9.566;2023-12-22T12:15:06;3.63;;;1.38;;
38609;SDS011;24367;51.640;9.566;2023-12-22T12:17:38;3.47;;;1.45;;
38609;SDS011;24367;51.640;9.566;2023-12-22T12:20:06;2.10;;;0.93;;
38609;SDS011;24367;51.640;9.566;2023-12-22T12:22:34;3.35;;;1.20;;
38609;SDS011;24367;51.640;9.566;2023-12-22T12:25:03;3.22;;;1.20;;
38609;SDS011;24367;51.640;9.566;2023-12-22T12:27:30;3.22;;;1.00;;
38609;SDS011;24367;51.640;9.566;2023-12-22T12:30:03;4.05;;;1.60;;
38609;SDS011;24367;51.640;9.566;2023-12-22T12:32:34;3.30;;;1.10;;
38609;SDS011;24367;51.640;9.566;2023-12-22T12:35:02;2.80;;;1.45;;
38609;SDS011;24367;51.640;9.566;2023-12-22T12:37:30;3.20;;;0.90;;
38609;SDS011;24367;51.640;9.566;2023-12-22T12:39:58;3.47;;;1.50;;
38609;SDS011;24367;51.640;9.566;2023-12-22T12:42:25;4.22;;;1.30;;
38609;SDS011;24367;51.640;9.566;2023-12-22T12:44:54;3.40;;;1.23;;
38609;SDS011;24367;51.640;9.566;2023-12-22T12:47:21;3.10;;;1.05;;
38609;SDS011;24367;51.640;9.566;2023-12-22T12:49:55;2.70;;;1.00;;
38609;SDS011;24367;51.640;9.566;2023-12-22T12:52:24;2.70;;;0.93;;
38609;SDS011;24367;51.640;9.566;2023-12-22T12:54:51;2.90;;;1.23;;
38609;SDS011;24367;51.640;9.566;2023-12-22T12:57:17;4.53;;;1.48;;
38609;SDS011;24367;51.640;9.566;2023-12-22T12:59:45;2.40;;;0.90;;
38609;SDS011;24367;51.640;9.566;2023-12-22T13:02:13;3.30;;;1.10;;
38609;SDS011;24367;51.640;9.566;2023-12-22T13:04:39;4.20;;;1.02;;
38609;SDS011;24367;51.640;9.566;2023-12-22T13:07:06;3.15;;;1.17;;
38609;SDS011;24367;51.640;9.566;2023-12-22T13:09:34;3.50;;;1.13;;
38609;SDS011;24367;51.640;9.566;2023-12-22T13:12:00;4.95;;;1.00;;
38609;SDS011;24367;51.640;9.566;2023-12-22T13:14:27;2.30;;;1.10;;
38609;SDS011;24367;51.640;9.566;2023-12-22T13:16:53;2.80;;;1.23;;
38609;SDS011;24367;51.640;9.566;2023-12-22T13:19:21;3.15;;;0.90;;
38609;SDS011;24367;51.640;9.566;2023-12-22T13:21:48;4.80;;;0.93;;
38609;SDS011;24367;51.640;9.566;2023-12-22T13:24:15;3.95;;;1.23;;
38609;SDS011;24367;51.640;9.566;2023-12-22T13:26:44;5.32;;;1.42;;
38609;SDS011;24367;51.640;9.566;2023-12-22T13:29:11;3.45;;;0.75;;
38609;SDS011;24367;51.640;9.566;2023-12-22T13:31:39;3.15;;;1.02;;
38609;SDS011;24367;51.640;9.566;2023-12-22T13:34:09;5.60;;;1.00;;
38609;SDS011;24367;51.640;9.566;2023-12-22T13:36:36;3.65;;;1.10;;
38609;SDS011;24367;51.640;9.566;2023-12-22T13:39:03;5.15;;;1.27;;
38609;SDS011;24367;51.640;9.566;2023-12-22T13:41:31;5.53;;;1.30;;
38609;SDS011;24367;51.640;9.566;2023-12-22T13:43:59;5.65;;;1.00;;
38609;SDS011;24367;51.640;9.566;2023-12-22T13:46:29;2.63;;;0.93;;
38609;SDS011;24367;51.640;9.566;2023-12-22T13:48:55;3.22;;;1.00;;
38609;SDS011;24367;51.640;9.566;2023-12-22T13:51:22;2.78;;;1.02;;
38609;SDS011;24367;51.640;9.566;2023-12-22T13:53:50;3.25;;;0.98;;
38609;SDS011;24367;51.640;9.566;2023-12-22T13:56:16;3.65;;;1.30;;
38609;SDS011;24367;51.640;9.566;2023-12-22T13:58:43;2.45;;;0.90;;
38609;SDS011;24367;51.640;9.566;2023-12-22T14:01:13;4.65;;;0.93;;
38609;SDS011;24367;51.640;9.566;2023-12-22T14:03:41;4.57;;;0.77;;
38609;SDS011;24367;51.640;9.566;2023-12-22T14:06:07;3.35;;;1.10;;
38609;SDS011;24367;51.640;9.566;2023-12-22T14:08:34;2.42;;;0.88;;
38609;SDS011;24367;51.640;9.566;2023-12-22T14:11:01;2.38;;;1.10;;
38609;SDS011;24367;51.640;9.566;2023-12-22T14:13:27;2.95;;;1.10;;
38609;SDS011;24367;51.640;9.566;2023-12-22T14:15:53;1.95;;;0.80;;
38609;SDS011;24367;51.640;9.566;2023-12-22T14:18:21;2.35;;;0.85;;
38609;SDS011;24367;51.640;9.566;2023-12-22T14:20:48;3.35;;;1.00;;
38609;SDS011;24367;51.640;9.566;2023-12-22T14:23:14;2.85;;;0.98;;
38609;SDS011;24367;51.640;9.566;2023-12-22T14:25:41;3.30;;;1.10;;
38609;SDS011;24367;51.640;9.566;2023-12-22T14:28:08;4.60;;;0.98;;
38609;SDS011;24367;51.640;9.566;2023-12-22T14:30:34;4.65;;;1.27;;
38609;SDS011;24367;51.640;9.566;2023-12-22T14:33:00;3.55;;;1.00;;
38609;SDS011;24367;51.640;9.566;2023-12-22T14:35:28;2.88;;;0.90;;
38609;SDS011;24367;51.640;9.566;2023-12-22T14:37:55;3.75;;;1.00;;
38609;SDS011;24367;51.640;9.566;2023-12-22T14:40:21;2.90;;;0.80;;
38609;SDS011;24367;51.640;9.566;2023-12-22T14:42:48;2.55;;;0.80;;
38609;SDS011;24367;51.640;9.566;2023-12-22T14:45:14;2.70;;;1.00;;
38609;SDS011;24367;51.640;9.566;2023-12-22T14:47:40;2.78;;;1.08;;
38609;SDS011;24367;51.640;9.566;2023-12-22T14:50:07;2.13;;;0.90;;